Time,TemperatureF,DewpointF,PressureIn,WindDirection,WindDirectionDegrees,WindSpeedMPH,WindSpeedGustMPH,Humidity,HourlyPrecipIn,Conditions,Clouds,dailyrainin,SolarRadiationWatts/m^2,SoftwareType,DateUTC
2013-10-07 00:00:00,50.0,42.0,-100.00,SW,225,5.0,-999.0,71,-99.99,,,-99.99,0.000000,,2013-10-07 04:00:00,
2013-10-07 00:44:00,50.0,42.0,-100.00,SW,225,5.0,-999.0,71,-99.99,,,-99.99,0.000000,,2013-10-07 04:44:00,
2013-10-07 00:53:00,50.0,42.0,-100.00,SW,225,5.0,-999.0,71,-99.99,,,-99.99,0.000000,,2013-10-07 04:53:00,
2013-10-07 01:00:00,49.0,42.0,-100.00,SSW,202,4.0,-999.0,76,-99.99,,,-99.99,0.000000,,2013-10-07 05:00:00,
2013-10-07 01:43:00,49.0,42.0,-100.00,SSW,202,4.0,-999.0,76,-99.99,,,-99.99,0.000000,,2013-10-07 05:43:00,
2013-10-07 01:52:00,49.0,42.0,-100.00,SSW,202,4.0,-999.0,76,-99.99,,,-99.99,0.000000,,2013-10-07 05:52:00,
2013-10-07 02:00:00,46.0,42.0,-100.00,South,180,3.0,-999.0,84,-99.99,,,-99.99,0.000000,,2013-10-07 06:00:00,
2013-10-07 02:42:00,46.0,42.0,-100.00,South,180,3.0,-999.0,84,-99.99,,,-99.99,0.000000,,2013-10-07 06:42:00,
2013-10-07 02:53:00,46.0,42.0,-100.00,South,180,3.0,-999.0,84,-99.99,,,-99.99,0.000000,,2013-10-07 06:53:00,
2013-10-07 03:00:00,46.0,43.0,-100.00,South,180,3.0,-999.0,87,0.01,,,-99.99,0.000000,,2013-10-07 07:00:00,
2013-10-07 03:42:00,46.0,43.0,-100.00,South,180,3.0,-999.0,87,0.01,,,-99.99,0.000000,,2013-10-07 07:42:00,
2013-10-07 03:52:00,46.0,43.0,-100.00,South,180,3.0,-999.0,87,0.01,,,-99.99,0.000000,,2013-10-07 07:52:00,
2013-10-07 04:00:00,47.0,44.0,-100.00,SSW,202,3.0,-999.0,89,-99.99,,,-99.99,0.000000,,2013-10-07 08:00:00,
2013-10-07 04:42:00,47.0,44.0,-100.00,SSW,202,3.0,-999.0,89,-99.99,,,-99.99,0.000000,,2013-10-07 08:42:00,
2013-10-07 04:52:00,47.0,44.0,-100.00,SSW,202,3.0,-999.0,89,-99.99,,,-99.99,0.000000,,2013-10-07 08:52:00,
2013-10-07 05:00:00,46.0,44.0,-100.00,SSW,202,4.0,-999.0,91,-99.99,,,-99.99,0.000000,,2013-10-07 09:00:00,
2013-10-07 05:43:00,46.0,44.0,-100.00,SSW,202,4.0,-999.0,91,-99.99,,,-99.99,0.000000,,2013-10-07 09:43:00,
2013-10-07 05:54:00,46.0,44.0,-100.00,SSW,202,4.0,-999.0,91,-99.99,,,-99.99,0.000000,,2013-10-07 09:54:00,
2013-10-07 07:00:00,45.0,44.0,-100.00,SSW,202,3.0,-999.0,96,0.07,,,-99.99,0.000000,,2013-10-07 11:00:00,
2013-10-07 07:42:00,45.0,44.0,-100.00,SSW,202,3.0,-999.0,96,0.07,,,-99.99,0.000000,,2013-10-07 11:42:00,
2013-10-07 07:52:00,45.0,44.0,-100.00,SSW,202,3.0,-999.0,96,0.07,,,-99.99,0.000000,,2013-10-07 11:52:00,
2013-10-07 09:00:00,46.0,46.0,-100.00,South,180,4.0,-999.0,100,0.01,,,-99.99,13.920000,,2013-10-07 13:00:00,
2013-10-07 09:42:00,46.0,46.0,-100.00,South,180,4.0,-999.0,100,0.01,,,-99.99,13.920000,,2013-10-07 13:42:00,
2013-10-07 09:52:00,46.0,46.0,-100.00,South,180,4.0,-999.0,100,0.01,,,-99.99,13.920000,,2013-10-07 13:52:00,
2013-10-07 11:00:00,52.0,49.0,-100.00,WSW,247,8.0,-999.0,87,-99.99,,,-99.99,38.279999,,2013-10-07 15:00:00,
2013-10-07 11:43:00,52.0,49.0,-100.00,WSW,247,8.0,-999.0,87,-99.99,,,-99.99,38.279999,,2013-10-07 15:43:00,
2013-10-07 11:53:00,52.0,49.0,-100.00,WSW,247,8.0,-999.0,87,-99.99,,,-99.99,38.279999,,2013-10-07 15:53:00,
2013-10-07 12:00:00,52.0,50.0,-100.00,WSW,247,7.0,-999.0,94,0.01,,,-99.99,52.200001,,2013-10-07 16:00:00,
2013-10-07 12:43:00,52.0,50.0,-100.00,WSW,247,7.0,-999.0,94,0.01,,,-99.99,52.200001,,2013-10-07 16:43:00,
2013-10-07 12:53:00,52.0,50.0,-100.00,WSW,247,7.0,-999.0,94,0.01,,,-99.99,52.200001,,2013-10-07 16:53:00,
2013-10-07 13:00:00,55.0,51.0,-100.00,West,270,12.0,-999.0,86,-99.99,,,-99.99,274.920013,,2013-10-07 17:00:00,
2013-10-07 13:42:00,55.0,51.0,-100.00,West,270,12.0,-999.0,86,-99.99,,,-99.99,274.920013,,2013-10-07 17:42:00,
2013-10-07 13:53:00,55.0,51.0,-100.00,West,270,12.0,-999.0,86,-99.99,,,-99.99,274.920013,,2013-10-07 17:53:00,
2013-10-07 15:00:00,58.0,48.0,-100.00,WNW,292,13.0,-999.0,68,-99.99,,,-99.99,428.040009,,2013-10-07 19:00:00,
2013-10-07 15:42:00,58.0,48.0,-100.00,WNW,292,13.0,-999.0,68,-99.99,,,-99.99,428.040009,,2013-10-07 19:42:00,
2013-10-07 15:53:00,58.0,48.0,-100.00,WNW,292,13.0,-999.0,68,-99.99,,,-99.99,428.040009,,2013-10-07 19:53:00,
2013-10-07 16:00:00,59.0,47.0,-100.00,WNW,292,11.0,-999.0,66,-99.99,,,-99.99,425.720001,,2013-10-07 20:00:00,
2013-10-07 16:43:00,59.0,47.0,-100.00,WNW,292,11.0,-999.0,66,-99.99,,,-99.99,425.720001,,2013-10-07 20:43:00,
2013-10-07 16:52:00,59.0,47.0,-100.00,WNW,292,11.0,-999.0,66,-99.99,,,-99.99,425.720001,,2013-10-07 20:52:00,
2013-10-07 18:00:00,60.0,45.0,-100.00,WNW,292,9.0,-999.0,58,-99.99,,,-99.99,247.080002,,2013-10-07 22:00:00,
2013-10-07 18:43:00,60.0,45.0,-100.00,WNW,292,9.0,-999.0,58,-99.99,,,-99.99,247.080002,,2013-10-07 22:43:00,
2013-10-07 18:53:00,60.0,45.0,-100.00,WNW,292,9.0,-999.0,58,-99.99,,,-99.99,247.080002,,2013-10-07 22:53:00,
2013-10-07 19:00:00,59.0,45.0,-100.00,WNW,292,5.0,-999.0,60,-99.99,,,-99.99,96.279999,,2013-10-07 23:00:00,
2013-10-07 19:42:00,59.0,45.0,-100.00,WNW,292,5.0,-999.0,60,-99.99,,,-99.99,96.279999,,2013-10-07 23:42:00,
2013-10-07 19:52:00,59.0,45.0,-100.00,WNW,292,5.0,-999.0,60,-99.99,,,-99.99,96.279999,,2013-10-07 23:52:00,
2013-10-07 20:00:00,50.0,45.0,-100.00,SW,225,0.0,-999.0,82,-99.99,,,-99.99,2.320000,,2013-10-08 00:00:00,
2013-10-07 20:42:00,50.0,45.0,-100.00,SW,225,0.0,-999.0,82,-99.99,,,-99.99,2.320000,,2013-10-08 00:42:00,
2013-10-07 20:52:00,50.0,45.0,-100.00,SW,225,0.0,-999.0,82,-99.99,,,-99.99,2.320000,,2013-10-08 00:52:00,
2013-10-07 22:00:00,43.0,43.0,-100.00,South,180,1.0,-999.0,100,-99.99,,,-99.99,0.000000,,2013-10-08 02:00:00,
2013-10-07 22:42:00,43.0,43.0,-100.00,South,180,1.0,-999.0,100,-99.99,,,-99.99,0.000000,,2013-10-08 02:42:00,
2013-10-07 22:52:00,43.0,43.0,-100.00,South,180,1.0,-999.0,100,-99.99,,,-99.99,0.000000,,2013-10-08 02:52:00,